Middleton, WI (53562)

4:34 PM CDT on October 23, 2014 (GMT -0500)
Middleton | Change Station
CLOSE
Current Station
Airport
Location: Middleton,
Elevation: 928 ft
Nearby Weather Stations

Elev 928 ft 43.12 °N, 89.53 °W | Updated 19 minutes ago

Overcast
Overcast
52 °F
Feels Like 52 °F
N
0
Wind Variable Wind from North

Today
High -- | Low -- °F
--% Chance of Precip.
Yesterday
High -- | Low -- °F
Precip. -- in
7:21 AM 6:02 PM
Waning Crescent, 0% visible
Pressure 30.04 in
Visibility 10.0 miles
Clouds Overcast 2300 ft
Dew Point 49 °F
Humidity 90%
Rainfall 0.28 in
Snow Depth Not available.
UV 0 out of 12
Pollen .30 out of 12
PM2.5 Good
Flu Activity Sporadic
METAR KC29 232115Z AUTO 00000KT 10SM OVC023 11/10 A3004 RMK AO1 T01120096

More Conditions Fewer Conditions

Pressure 30.04 in
Visibility 10.0 miles
Clouds Overcast 2300 ft
Dew Point 49 °F
Humidity 90%
Rainfall 0.28 in
Snow Depth Not available.
UV 0 out of 12
Pollen .30 out of 12
PM2.5 Good
Flu Activity Sporadic
METAR KC29 232115Z AUTO 00000KT 10SM OVC023 11/10 A3004 RMK AO1 T01120096

More Conditions Fewer Conditions

Nowcast | as of 4:27 PM CDT on October 23, 2014

Showers will continue to affect east central into south central and a small part of far south central Wisconsin through the late afternoon. Showers will affect the Sheboygan...Waukesha...Milwaukee... Janesville...and Whitewater areas through 6 PM CDT. Occasional showers are expected in Racine...Kenosha and Burlington into the early evening. Rainfall between one and two tenths of an inch is possible. The back edge of the showers extended from near Green Lake southeast to Beaver Dam and was moving to the northeast at 25 mph. Hence the showers will taper off in the West Bend and Fond Du Lac areas between 5 PM and 6 PM CDT.

×

10-Day Weather Forecast

Almanac

Astronomy

Oct. 23, 2014 Rise Set
Actual Time 7:21 AM CDT 6:02 PM CDT
Civil Twilight 6:52 AM CDT 6:31 PM CDT
Nautical Twilight 6:19 AM CDT 7:04 PM CDT
Astronomical Twilight 5:46 AM CDT 7:37 PM CDT
Moon 7:00 AM CDT 6:04 PM CDT
Length of Visible Light 11h 39m
Length of Day
10h 41m
Tomorrow will be 2m 45s shorter.
Waning Crescent, 0% of the Moon is Illuminated
Today
Waning Crescent
Oct 23
New
Oct 30
First Quarter
Nov 6
Full
Nov 14
Last Quarter

Today's Extremes

State Highs State Lows

Community

WunderPhotos

Upload Photos

1,764,379 photos uploaded!

WunderBlogs® & News

Nearby

Air Quality

  Air Quality AQ Index Pollutant
Current Good
PM2.5
Thursday Good
PM2.5
Friday Moderate
PM2.5
Saturday Good
PM2.5
Sunday Good
PM2.5

Snow Depth

Station Depth Elevation
No new snow has been reported.

Earthquake Activity

City Distance Mag. Time & Date
No recent earthquake activity has been reported nearby.
Minimum magnitude displayed is 2.5.

Coastal Water Temperatures

Place Temperature
No Stations Reporting

Nearby Weather Stations